Time;durP1;ratioP1;P1;durP2;ratioP2;P2;SDS_P1;SDS_P2;PMS_P1;PMS_P2;Temp;Humidity;BMP_temperature;BMP_pressure;BME280_temperature;BME280_humidity;BME280_pressure;Samples;Min_cycle;Max_cycle;Signal;HPM_P1;HPM_P2
2022/09/23 03:00:15;;;;;;;;;;;19.90;45.50;;;;;;6040550;23;46091;31
2022/09/23 03:02:49;;;;;;;;;;;19.90;45.50;;;;;;4843187;29;45893;-63
2022/09/23 03:05:22;;;;;;;;;;;19.90;45.60;;;;;;4857425;29;46220;-62
2022/09/23 03:07:51;;;;;;;;;;;19.90;45.50;;;;;;4854733;29;45434;-63
2022/09/23 03:10:22;;;;;;;;;;;19.90;45.50;;;;;;4847035;29;44728;-65
2022/09/23 03:12:56;;;;;;;;;;;19.90;45.60;;;;;;4860685;29;45218;-63
2022/09/23 03:15:35;;;;;;;;;;;19.90;45.60;;;;;;4855190;29;46164;-61
2022/09/23 03:18:19;;;;;;;;;;;19.90;45.60;;;;;;4857586;29;45460;-62
2022/09/23 03:20:48;;;;;;;;;;;19.90;45.50;;;;;;4855586;29;46380;-63
2022/09/23 03:23:14;;;;;;;;;;;19.90;45.60;;;;;;4865573;29;45308;-64
2022/09/23 03:25:40;;;;;;;;;;;19.80;45.50;;;;;;4853909;29;45507;-70
2022/09/23 03:28:06;;;;;;;;;;;19.80;45.50;;;;;;4840662;29;45534;-62
2022/09/23 03:30:34;;;;;;;;;;;19.80;45.50;;;;;;4868534;29;45223;-64
2022/09/23 03:33:00;;;;;;;;;;;19.80;45.60;;;;;;4856431;29;45418;-63
2022/09/23 03:35:26;;;;;;;;;;;19.80;45.60;;;;;;4870923;29;46070;-64
2022/09/23 03:37:52;;;;;;;;;;;19.80;45.50;;;;;;4841049;29;45072;-63
2022/09/23 03:40:26;;;;;;;;;;;19.80;45.60;;;;;;4869152;29;45296;-64
2022/09/23 03:42:52;;;;;;;;;;;19.80;45.50;;;;;;4860815;29;45635;-63
2022/09/23 03:45:19;;;;;;;;;;;19.80;45.50;;;;;;4869336;29;46560;-60
2022/09/23 03:47:44;;;;;;;;;;;19.80;45.60;;;;;;4840039;29;45476;-64
2022/09/23 03:50:12;;;;;;;;;;;19.80;45.60;;;;;;4855855;29;45254;-63
2022/09/23 03:52:38;;;;;;;;;;;19.80;45.60;;;;;;4847094;29;45550;-63
2022/09/23 03:55:04;;;;;;;;;;;19.80;45.60;;;;;;4870486;29;45812;-63
2022/09/23 03:57:30;;;;;;;;;;;19.70;45.50;;;;;;4856388;29;45192;-63
2022/09/23 03:59:56;;;;;;;;;;;19.80;45.60;;;;;;4863138;29;45034;-64
2022/09/23 04:02:21;;;;;;;;;;;19.80;45.60;;;;;;4859959;29;45641;-63
2022/09/23 04:04:47;;;;;;;;;;;19.80;45.60;;;;;;4872095;29;45610;-65
2022/09/23 04:07:13;;;;;;;;;;;19.70;45.60;;;;;;4875131;29;44929;-64
2022/09/23 04:09:39;;;;;;;;;;;19.70;45.60;;;;;;4887857;28;45505;-63
2022/09/23 04:12:04;;;;;;;;;;;19.70;45.60;;;;;;4874039;29;45426;-64
2022/09/23 04:14:30;;;;;;;;;;;19.70;45.60;;;;;;4875509;29;45162;-63
2022/09/23 04:16:55;;;;;;;;;;;19.70;45.60;;;;;;4876216;29;45248;-63
2022/09/23 04:19:21;;;;;;;;;;;19.70;45.60;;;;;;4864618;29;45278;-64
2022/09/23 04:21:46;;;;;;;;;;;19.70;45.60;;;;;;4877658;29;45296;-63
2022/09/23 04:24:12;;;;;;;;;;;19.70;45.60;;;;;;4875877;29;45422;-66
2022/09/23 04:26:38;;;;;;;;;;;19.70;45.60;;;;;;4870201;29;45317;-64
2022/09/23 04:29:03;;;;;;;;;;;19.70;45.60;;;;;;4865728;29;45537;-62
2022/09/23 04:31:29;;;;;;;;;;;19.70;45.60;;;;;;4895226;28;45541;-60
2022/09/23 04:33:55;;;;;;;;;;;19.70;45.60;;;;;;4875465;29;47218;-63
2022/09/23 04:36:20;;;;;;;;;;;19.60;45.50;;;;;;4877280;29;46378;-61
2022/09/23 04:38:46;;;;;;;;;;;19.60;45.50;;;;;;4877715;29;45192;-65
2022/09/23 04:41:11;;;;;;;;;;;19.60;45.50;;;;;;4876929;29;45549;-63
2022/09/23 04:43:37;;;;;;;;;;;19.60;45.60;;;;;;4878422;29;45373;-63
2022/09/23 04:46:03;;;;;;;;;;;19.60;45.60;;;;;;4873365;29;45428;-63
2022/09/23 04:48:29;;;;;;;;;;;19.60;45.60;;;;;;4869218;29;45251;-61
2022/09/23 04:51:02;;;;;;;;;;;19.60;45.60;;;;;;4874517;29;45338;-63
2022/09/23 04:53:28;;;;;;;;;;;19.60;45.60;;;;;;4871095;29;46086;-65
2022/09/23 04:55:54;;;;;;;;;;;19.60;45.60;;;;;;4873251;29;45314;-64
2022/09/23 04:58:21;;;;;;;;;;;19.60;45.70;;;;;;4877690;29;45529;-63
2022/09/23 05:00:47;;;;;;;;;;;19.50;45.60;;;;;;4877273;29;46318;-63
2022/09/23 05:03:12;;;;;;;;;;;19.60;45.60;;;;;;4887189;28;46069;-62
2022/09/23 05:05:38;;;;;;;;;;;19.50;45.70;;;;;;4874147;29;45879;-62
2022/09/23 05:08:03;;;;;;;;;;;19.50;45.70;;;;;;4876985;29;45042;-63
2022/09/23 05:10:30;;;;;;;;;;;19.50;45.60;;;;;;4879152;29;45303;-63
2022/09/23 05:12:56;;;;;;;;;;;19.50;45.60;;;;;;4877505;29;45079;-62
2022/09/23 05:15:21;;;;;;;;;;;19.50;45.60;;;;;;4875338;29;45399;-63
2022/09/23 05:17:47;;;;;;;;;;;19.50;45.60;;;;;;4879583;29;45472;-63
2022/09/23 05:20:13;;;;;;;;;;;19.50;45.70;;;;;;4860546;29;45079;-63
2022/09/23 05:22:38;;;;;;;;;;;19.50;45.70;;;;;;4875526;29;45914;-63
2022/09/23 05:25:04;;;;;;;;;;;19.50;45.70;;;;;;4860830;29;45070;-62
2022/09/23 05:27:30;;;;;;;;;;;19.60;45.70;;;;;;4877486;29;45546;-62
2022/09/23 05:29:55;;;;;;;;;;;19.50;45.60;;;;;;4869665;29;45395;-68
2022/09/23 05:32:21;;;;;;;;;;;19.50;45.60;;;;;;4878640;29;45499;-62
2022/09/23 05:34:46;;;;;;;;;;;19.50;45.60;;;;;;4871461;29;45550;-61
2022/09/23 05:37:12;;;;;;;;;;;19.50;45.60;;;;;;4872943;29;45293;-64
2022/09/23 05:39:37;;;;;;;;;;;19.50;45.60;;;;;;4879295;29;45572;-62
2022/09/23 05:42:03;;;;;;;;;;;19.50;45.60;;;;;;4854838;29;45107;-64
2022/09/23 05:44:28;;;;;;;;;;;19.50;45.60;;;;;;4859870;29;45579;-69
2022/09/23 05:46:54;;;;;;;;;;;19.50;45.60;;;;;;4875599;29;45565;-63
2022/09/23 05:49:19;;;;;;;;;;;19.50;45.50;;;;;;4882971;29;45431;-63
2022/09/23 05:51:45;;;;;;;;;;;19.50;45.60;;;;;;4875081;29;45275;-63
2022/09/23 05:54:10;;;;;;;;;;;19.50;45.50;;;;;;4877573;29;45585;-62
2022/09/23 05:56:36;;;;;;;;;;;19.60;45.50;;;;;;4876334;29;45132;-63
2022/09/23 05:59:02;;;;;;;;;;;19.50;45.50;;;;;;4876531;29;45525;-62
2022/09/23 06:01:30;;;;;;;;;;;19.50;45.50;;;;;;4891931;28;45436;-64
2022/09/23 06:03:56;;;;;;;;;;;19.50;45.50;;;;;;4884538;29;44746;-65
2022/09/23 06:06:24;;;;;;;;;;;19.50;45.50;;;;;;4871635;29;45493;-63
2022/09/23 06:08:50;;;;;;;;;;;19.50;45.50;;;;;;4848909;29;45889;-60
2022/09/23 06:11:15;;;;;;;;;;;19.50;45.50;;;;;;4877819;29;46475;-61
2022/09/23 06:13:41;;;;;;;;;;;19.60;45.40;;;;;;4874778;29;45545;-61
2022/09/23 06:16:07;;;;;;;;;;;19.60;45.50;;;;;;4872353;29;45415;-59
2022/09/23 06:18:33;;;;;;;;;;;19.60;45.50;;;;;;4878549;29;46094;-60
2022/09/23 06:21:00;;;;;;;;;;;19.60;46.10;;;;;;4874521;29;46046;-60
2022/09/23 06:23:25;;;;;;;;;;;19.60;45.40;;;;;;4874923;29;44739;-61
2022/09/23 06:25:51;;;;;;;;;;;19.60;45.40;;;;;;4875839;29;45504;-60
2022/09/23 06:28:16;;;;;;;;;;;19.60;45.30;;;;;;4863259;29;45403;-61
2022/09/23 06:30:42;;;;;;;;;;;19.70;45.40;;;;;;4875604;29;46130;-60
2022/09/23 06:33:07;;;;;;;;;;;19.70;45.40;;;;;;4879153;29;45615;-62
2022/09/23 06:35:33;;;;;;;;;;;19.70;45.40;;;;;;4876152;29;45011;-61
2022/09/23 06:37:59;;;;;;;;;;;19.70;45.40;;;;;;4879961;29;45473;-61
2022/09/23 06:40:24;;;;;;;;;;;19.70;45.40;;;;;;4892475;28;45950;-61
2022/09/23 06:42:59;;;;;;;;;;;19.80;45.40;;;;;;4884106;29;45600;-59
2022/09/23 06:45:24;;;;;;;;;;;19.80;45.40;;;;;;4869734;29;45425;-59
2022/09/23 06:47:55;;;;;;;;;;;19.80;45.30;;;;;;4882221;29;45528;-61
2022/09/23 06:50:20;;;;;;;;;;;19.80;45.40;;;;;;4877201;29;45949;-61
2022/09/23 06:52:49;;;;;;;;;;;19.90;45.40;;;;;;4879504;29;45092;-63
2022/09/23 06:55:15;;;;;;;;;;;19.90;45.40;;;;;;4879924;29;45604;-61
2022/09/23 06:57:40;;;;;;;;;;;19.90;45.40;;;;;;4876530;29;45537;-63
2022/09/23 07:00:06;;;;;;;;;;;19.90;45.50;;;;;;4879526;28;45245;-61
2022/09/23 07:02:31;;;;;;;;;;;19.90;45.50;;;;;;4886672;29;45386;-60
2022/09/23 07:04:57;;;;;;;;;;;19.90;45.50;;;;;;4880641;29;45734;-61
2022/09/23 07:07:23;;;;;;;;;;;19.90;45.50;;;;;;4881297;29;45394;-62
2022/09/23 07:09:48;;;;;;;;;;;19.90;45.40;;;;;;4880437;29;46358;-61
2022/09/23 07:12:14;;;;;;;;;;;20.00;45.50;;;;;;4884593;29;45069;-61
2022/09/23 07:14:39;;;;;;;;;;;19.90;45.40;;;;;;4880704;29;45493;-61
2022/09/23 07:17:05;;;;;;;;;;;20.00;45.50;;;;;;4880026;29;45657;-62
2022/09/23 07:19:30;;;;;;;;;;;20.00;45.40;;;;;;4876772;29;46341;-61
2022/09/23 07:21:56;;;;;;;;;;;20.00;45.40;;;;;;4890924;29;45101;-61
2022/09/23 07:24:21;;;;;;;;;;;20.10;45.40;;;;;;4883483;29;44917;-62
2022/09/23 07:26:47;;;;;;;;;;;20.10;45.30;;;;;;4876158;29;45219;-62
2022/09/23 07:29:13;;;;;;;;;;;20.10;45.30;;;;;;4872191;29;46079;-60
2022/09/23 07:31:38;;;;;;;;;;;20.10;45.20;;;;;;4870077;29;45539;-61
2022/09/23 07:34:04;;;;;;;;;;;20.10;45.20;;;;;;4882601;29;45552;-61
2022/09/23 07:36:32;;;;;;;;;;;20.20;45.20;;;;;;4885997;29;45452;-61
2022/09/23 07:39:02;;;;;;;;;;;20.20;45.20;;;;;;4878802;29;46349;-62
2022/09/23 07:41:28;;;;;;;;;;;20.20;45.10;;;;;;4884918;29;45590;-60
2022/09/23 07:43:56;;;;;;;;;;;20.30;45.10;;;;;;4890635;29;45539;-60
2022/09/23 07:46:21;;;;;;;;;;;20.30;45.00;;;;;;4880872;29;45219;-61
2022/09/23 07:48:47;;;;;;;;;;;20.30;45.00;;;;;;4875600;29;45015;-63
2022/09/23 07:51:12;;;;;;;;;;;20.30;45.00;;;;;;4880932;29;44963;-59
2022/09/23 07:53:38;;;;;;;;;;;20.40;45.00;;;;;;4885082;29;45517;-62
2022/09/23 07:56:05;;;;;;;;;;;20.40;45.00;;;;;;4881551;29;45697;-62
2022/09/23 07:58:30;;;;;;;;;;;20.40;45.00;;;;;;4882595;29;45585;-62
2022/09/23 08:01:03;;;;;;;;;;;20.40;44.90;;;;;;4878606;29;45429;-62
2022/09/23 08:03:29;;;;;;;;;;;20.40;44.90;;;;;;4884589;29;45549;-61
2022/09/23 08:06:01;;;;;;;;;;;20.40;44.90;;;;;;4882611;29;44797;-60
2022/09/23 08:08:26;;;;;;;;;;;20.40;44.90;;;;;;4879073;29;46169;-61
2022/09/23 08:10:58;;;;;;;;;;;20.40;44.90;;;;;;4874533;29;44759;-61
2022/09/23 08:13:24;;;;;;;;;;;20.50;45.00;;;;;;4877478;29;45389;-61
2022/09/23 08:15:49;;;;;;;;;;;20.50;44.90;;;;;;4876569;29;45313;-61
2022/09/23 08:18:14;;;;;;;;;;;20.50;44.90;;;;;;4877096;29;45924;-62
2022/09/23 08:20:43;;;;;;;;;;;20.60;44.90;;;;;;4885131;29;45430;-62
2022/09/23 08:23:09;;;;;;;;;;;20.50;44.90;;;;;;4878153;29;45349;-63
2022/09/23 08:25:34;;;;;;;;;;;20.60;45.00;;;;;;4881998;29;45476;-63
2022/09/23 08:28:00;;;;;;;;;;;20.60;45.00;;;;;;4871488;29;45839;-60
2022/09/23 08:30:25;;;;;;;;;;;20.60;45.00;;;;;;4874812;29;45240;-61
2022/09/23 08:32:51;;;;;;;;;;;20.60;44.90;;;;;;4878672;29;45604;-59
2022/09/23 08:35:16;;;;;;;;;;;20.60;44.90;;;;;;4880220;29;45441;-60
2022/09/23 08:37:42;;;;;;;;;;;20.60;45.00;;;;;;4875936;29;45549;-61
2022/09/23 08:40:07;;;;;;;;;;;20.60;44.90;;;;;;4880766;29;44990;-61
2022/09/23 08:42:33;;;;;;;;;;;20.70;45.00;;;;;;4875784;29;45622;-61
2022/09/23 08:44:59;;;;;;;;;;;20.70;44.90;;;;;;4898051;28;46217;-59
2022/09/23 08:47:34;;;;;;;;;;;20.70;44.80;;;;;;4876471;29;45243;-59
2022/09/23 08:49:59;;;;;;;;;;;20.70;44.90;;;;;;4885964;29;45282;-59
2022/09/23 08:52:31;;;;;;;;;;;20.70;44.80;;;;;;4877644;29;45146;-59
2022/09/23 08:54:56;;;;;;;;;;;20.70;44.80;;;;;;4893079;28;45297;-61
2022/09/23 08:57:28;;;;;;;;;;;20.80;44.70;;;;;;4858165;29;44964;-61
2022/09/23 08:59:54;;;;;;;;;;;20.80;44.70;;;;;;4880259;29;45461;-61
2022/09/23 09:02:20;;;;;;;;;;;20.80;44.80;;;;;;4862749;29;45043;-63
2022/09/23 09:04:52;;;;;;;;;;;20.80;44.70;;;;;;4885611;29;46358;-62
2022/09/23 09:07:19;;;;;;;;;;;20.80;45.30;;;;;;4884038;28;46171;-61
2022/09/23 09:09:45;;;;;;;;;;;20.90;44.80;;;;;;4861985;29;45001;-62
2022/09/23 09:12:16;;;;;;;;;;;20.90;44.80;;;;;;4882283;29;44825;-62
2022/09/23 09:14:41;;;;;;;;;;;20.90;44.80;;;;;;4865788;29;45383;-62
2022/09/23 09:17:09;;;;;;;;;;;20.90;44.80;;;;;;4882161;29;45880;-62
2022/09/23 09:19:34;;;;;;;;;;;20.90;44.80;;;;;;4870478;29;44639;-62
2022/09/23 09:22:00;;;;;;;;;;;20.90;44.70;;;;;;4883607;29;45462;-62
2022/09/23 09:24:34;;;;;;;;;;;20.90;44.70;;;;;;4879627;29;45607;-61
2022/09/23 09:27:00;;;;;;;;;;;20.90;44.70;;;;;;4878729;29;45486;-63
2022/09/23 09:29:31;;;;;;;;;;;21.00;44.70;;;;;;4866917;29;45190;-61
2022/09/23 09:31:56;;;;;;;;;;;21.00;44.80;;;;;;4888773;28;45370;-61
2022/09/23 09:34:33;;;;;;;;;;;21.00;44.70;;;;;;4862320;29;44707;-62
2022/09/23 09:37:00;;;;;;;;;;;21.00;44.70;;;;;;4878185;29;45164;-62
2022/09/23 09:39:26;;;;;;;;;;;21.00;44.60;;;;;;4892815;28;45492;-63
2022/09/23 09:41:51;;;;;;;;;;;21.00;44.70;;;;;;4886745;29;45530;-63
2022/09/23 09:44:25;;;;;;;;;;;21.00;44.70;;;;;;4881437;29;45231;-61
2022/09/23 09:46:59;;;;;;;;;;;21.00;44.70;;;;;;4881043;28;46250;-62
2022/09/23 09:49:57;;;;;;;;;;;21.00;44.70;;;;;;4856679;29;45659;-61
2022/09/23 09:52:25;;;;;;;;;;;21.10;44.70;;;;;;4874616;29;45285;-62
2022/09/23 09:54:50;;;;;;;;;;;21.10;44.70;;;;;;4889912;29;45493;-62
2022/09/23 09:57:29;;;;;;;;;;;21.10;44.70;;;;;;4875629;29;46630;-62
2022/09/23 09:59:55;;;;;;;;;;;21.10;44.60;;;;;;4873671;29;44732;-61
2022/09/23 10:02:29;;;;;;;;;;;21.10;44.70;;;;;;4871338;29;45635;-61
2022/09/23 10:04:56;;;;;;;;;;;21.10;44.70;;;;;;4886708;28;45544;-62
2022/09/23 10:07:23;;;;;;;;;;;21.20;44.70;;;;;;4889451;28;45529;-62
2022/09/23 10:09:49;;;;;;;;;;;21.20;44.70;;;;;;4873932;29;45502;-62
2022/09/23 10:12:17;;;;;;;;;;;21.10;44.60;;;;;;4871590;29;45547;-62
2022/09/23 10:14:45;;;;;;;;;;;21.20;44.60;;;;;;4878708;29;45320;-61
2022/09/23 10:17:16;;;;;;;;;;;21.20;44.60;;;;;;4876108;29;46089;-62
2022/09/23 10:19:46;;;;;;;;;;;21.20;44.60;;;;;;4865894;29;45414;-61
2022/09/23 10:22:17;;;;;;;;;;;21.20;44.70;;;;;;4851007;29;45293;-63
2022/09/23 10:24:45;;;;;;;;;;;21.10;44.70;;;;;;4882008;28;45813;-62
2022/09/23 10:27:11;;;;;;;;;;;21.10;44.60;;;;;;4880987;28;47213;-61
2022/09/23 10:29:38;;;;;;;;;;;21.10;44.60;;;;;;4868271;29;45523;-61
2022/09/23 10:32:22;;;;;;;;;;;21.20;44.70;;;;;;4869010;29;45324;-62
2022/09/23 10:34:52;;;;;;;;;;;21.10;44.60;;;;;;4868106;29;45798;-62
2022/09/23 10:37:27;;;;;;;;;;;21.20;44.60;;;;;;4868038;29;46102;-61
2022/09/23 10:48:48;;;;;;;;;;;21.10;44.60;;;;;;4877261;28;46036;-63
2022/09/23 10:51:23;;;;;;;;;;;21.10;44.70;;;;;;4856996;29;45704;-62
2022/09/23 10:53:48;;;;;;;;;;;21.10;44.70;;;;;;4866963;29;46185;-65
2022/09/23 10:56:20;;;;;;;;;;;21.20;44.60;;;;;;4864323;29;45319;-64
2022/09/23 10:58:46;;;;;;;;;;;21.20;44.60;;;;;;4877943;28;46192;-63
2022/09/23 11:01:20;;;;;;;;;;;21.20;44.60;;;;;;4867753;29;44774;-62
2022/09/23 11:04:00;;;;;;;;;;;21.20;44.60;;;;;;4868769;29;46139;-61
2022/09/23 11:06:32;;;;;;;;;;;21.10;44.60;;;;;;4864784;29;46216;-62
2022/09/23 11:09:10;;;;;;;;;;;21.20;44.60;;;;;;4879775;28;45806;-62
2022/09/23 11:11:58;;;;;;;;;;;21.20;44.60;;;;;;4867003;29;45378;-62
2022/09/23 11:14:37;;;;;;;;;;;21.20;44.60;;;;;;4852765;29;45687;-63
2022/09/23 11:17:04;;;;;;;;;;;21.20;44.70;;;;;;4880511;29;45569;-62
2022/09/23 11:19:33;;;;;;;;;;;21.20;44.70;;;;;;4865845;29;45682;-62
2022/09/23 11:21:58;;;;;;;;;;;21.20;44.80;;;;;;4867635;29;45738;-63
2022/09/23 11:24:33;;;;;;;;;;;21.20;44.70;;;;;;4867264;29;45799;-63
2022/09/23 11:27:18;;;;;;;;;;;21.20;44.70;;;;;;4881241;28;45250;-60
2022/09/23 11:29:49;;;;;;;;;;;21.30;44.70;;;;;;4865839;29;45317;-59
2022/09/23 11:32:31;;;;;;;;;;;21.30;44.70;;;;;;4865436;29;44674;-59
2022/09/23 11:35:01;;;;;;;;;;;21.30;44.70;;;;;;4878986;28;44759;-60
2022/09/23 11:37:27;;;;;;;;;;;21.30;44.70;;;;;;4866287;29;45713;-60
2022/09/23 11:39:56;;;;;;;;;;;21.30;44.70;;;;;;4879248;28;47978;-61
2022/09/23 11:42:25;;;;;;;;;;;21.30;44.80;;;;;;4863240;29;45954;-60
2022/09/23 11:44:53;;;;;;;;;;;21.30;44.80;;;;;;4880119;28;45369;-58
2022/09/23 11:47:25;;;;;;;;;;;21.30;44.80;;;;;;4878530;28;45726;-59
2022/09/23 11:50:03;;;;;;;;;;;21.30;44.80;;;;;;4878515;28;45906;-60
2022/09/23 11:52:32;;;;;;;;;;;21.30;44.80;;;;;;4863404;29;45322;-61
2022/09/23 11:55:17;;;;;;;;;;;21.30;44.80;;;;;;4879910;28;45432;-59
2022/09/23 11:57:47;;;;;;;;;;;21.30;44.80;;;;;;4859130;29;45211;-61
2022/09/23 12:00:26;;;;;;;;;;;21.30;44.80;;;;;;4871989;28;45925;-60
2022/09/23 12:03:11;;;;;;;;;;;21.30;44.90;;;;;;4876359;28;45399;-61
2022/09/23 12:05:38;;;;;;;;;;;21.40;44.90;;;;;;4863260;29;45325;-62
2022/09/23 12:08:09;;;;;;;;;;;21.40;44.90;;;;;;4877813;28;45246;-65
2022/09/23 12:10:53;;;;;;;;;;;21.40;44.90;;;;;;4861331;29;46227;-59
2022/09/23 12:13:20;;;;;;;;;;;21.40;44.90;;;;;;4863185;29;45413;-63
2022/09/23 12:16:08;;;;;;;;;;;21.40;44.90;;;;;;4860490;29;44788;-58
2022/09/23 12:18:54;;;;;;;;;;;21.40;44.90;;;;;;4862892;29;45373;-60
2022/09/23 12:21:22;;;;;;;;;;;21.40;44.80;;;;;;4863040;29;46331;-61
2022/09/23 12:23:52;;;;;;;;;;;21.40;44.90;;;;;;4865449;29;46261;-63
2022/09/23 12:26:18;;;;;;;;;;;21.40;44.80;;;;;;4879462;28;45111;-61
2022/09/23 12:28:44;;;;;;;;;;;21.40;44.90;;;;;;4877922;28;46275;-62
2022/09/23 12:31:11;;;;;;;;;;;21.40;44.80;;;;;;4878045;28;45663;-64
2022/09/23 12:33:37;;;;;;;1.42;0.80;;;21.40;44.90;;;;;;4878996;28;45737;-62
2022/09/23 12:36:10;;;;;;;1.98;1.10;;;21.40;44.80;;;;;;4864248;29;45472;-62
2022/09/23 12:38:48;;;;;;;1.70;1.33;;;21.40;44.70;;;;;;4855079;29;46366;-63
2022/09/23 12:41:32;;;;;;;1.30;1.00;;;21.50;44.90;;;;;;4847833;29;46095;-61
2022/09/23 12:44:09;;;;;;;1.70;1.23;;;21.50;44.80;;;;;;4863764;29;44987;-61
2022/09/23 12:46:35;;;;;;;0.98;0.90;;;21.50;44.90;;;;;;4863407;29;46271;-62
2022/09/23 12:49:02;;;;;;;1.35;1.13;;;21.50;44.90;;;;;;4853677;29;45450;-64
2022/09/23 12:51:28;;;;;;;1.85;1.00;;;21.50;44.90;;;;;;4864931;29;46047;-60
2022/09/23 12:53:56;;;;;;;1.42;1.02;;;21.50;44.90;;;;;;4864900;29;45463;-60
2022/09/23 12:56:46;;;;;;;1.35;1.25;;;21.50;44.90;;;;;;4858859;29;45501;-61
2022/09/23 12:59:15;;;;;;;1.88;1.10;;;21.50;44.90;;;;;;4858563;29;45767;-60
2022/09/23 13:01:40;;;;;;;1.23;0.98;;;21.50;44.90;;;;;;4862037;29;46002;-66
2022/09/23 13:07:25;;;;;;;2.05;1.25;;;21.60;44.90;;;;;;4863879;29;45430;-63
2022/09/23 13:09:51;;;;;;;3.08;1.30;;;21.50;44.90;;;;;;4861078;29;45738;-61
2022/09/23 13:12:27;;;;;;;2.65;1.05;;;21.60;44.90;;;;;;4847407;29;46181;-60
2022/09/23 13:14:53;;;;;;;1.33;0.90;;;21.60;44.90;;;;;;4861793;29;44989;-60
2022/09/23 13:17:29;;;;;;;2.97;1.00;;;21.60;44.90;;;;;;4863534;29;45302;-59
2022/09/23 13:20:00;;;;;;;1.15;0.95;;;21.60;44.90;;;;;;4863132;29;45605;-59
2022/09/23 13:22:44;;;;;;;1.38;1.10;;;21.60;44.90;;;;;;4853969;29;46172;-60
2022/09/23 13:25:16;;;;;;;1.10;1.00;;;21.60;44.80;;;;;;4863329;29;46927;-59
2022/09/23 13:27:42;;;;;;;1.67;1.20;;;21.70;44.90;;;;;;4863847;29;44781;-60
2022/09/23 13:30:14;;;;;;;1.42;1.10;;;21.60;44.90;;;;;;4861769;29;44871;-62
2022/09/23 13:32:48;;;;;;;1.38;1.15;;;21.60;44.90;;;;;;4862732;29;46261;-59
2022/09/23 13:35:19;;;;;;;1.30;1.10;;;21.60;44.90;;;;;;4850762;29;45352;-62
2022/09/23 13:37:48;;;;;;;1.35;1.02;;;21.60;44.90;;;;;;4862934;29;45461;-63
2022/09/23 13:40:22;;;;;;;1.08;0.90;;;21.60;44.90;;;;;;4863230;29;45449;-64
2022/09/23 13:43:11;;;;;;;1.20;0.98;;;21.70;44.90;;;;;;4864631;29;45896;-63
2022/09/23 13:45:37;;;;;;;2.00;1.02;;;21.70;44.90;;;;;;4877834;28;47500;-61
2022/09/23 13:48:09;;;;;;;3.42;1.00;;;21.60;45.00;;;;;;4867372;29;48622;-61
2022/09/23 13:50:35;;;;;;;1.27;1.08;;;21.70;45.00;;;;;;4862454;29;45250;-62
2022/09/23 13:53:04;;;;;;;3.30;1.33;;;21.70;45.00;;;;;;4839522;29;46159;-62
2022/09/23 13:55:32;;;;;;;3.20;0.85;;;21.70;45.00;;;;;;4860198;29;44858;-61
2022/09/23 13:57:59;;;;;;;2.22;1.40;;;21.70;45.00;;;;;;4861137;29;46333;-61
2022/09/23 14:00:25;;;;;;;2.55;1.10;;;21.70;45.00;;;;;;4857585;29;45668;-61
2022/09/23 14:02:54;;;;;;;3.90;1.23;;;21.70;44.90;;;;;;4857648;29;46158;-62
2022/09/23 14:05:25;;;;;;;1.98;1.17;;;21.70;45.00;;;;;;4857344;29;45346;-61
2022/09/23 14:07:50;;;;;;;2.10;1.08;;;21.70;45.00;;;;;;4861003;29;46140;-62
2022/09/23 14:10:17;;;;;;;1.73;1.10;;;21.60;45.00;;;;;;4843291;29;46193;-61
2022/09/23 14:12:43;;;;;;;1.88;1.00;;;21.60;45.00;;;;;;4859651;29;46072;-61
2022/09/23 14:15:16;;;;;;;1.35;1.10;;;21.60;45.00;;;;;;4859482;29;45474;-61
2022/09/23 14:17:50;;;;;;;1.40;1.10;;;21.60;45.00;;;;;;4859639;29;45606;-62
2022/09/23 14:20:16;;;;;;;2.00;1.20;;;21.60;45.00;;;;;;4860088;29;45784;-60
2022/09/23 14:22:42;;;;;;;1.98;1.20;;;21.60;45.00;;;;;;4842470;29;47499;-61
2022/09/23 14:25:15;;;;;;;4.22;1.17;;;21.60;45.00;;;;;;4858595;29;45553;-61
2022/09/23 14:27:41;;;;;;;1.88;1.17;;;21.60;45.00;;;;;;4844658;29;45678;-61
2022/09/23 14:30:16;;;;;;;2.55;1.10;;;21.60;45.00;;;;;;4861092;29;46583;-61
2022/09/23 14:32:42;;;;;;;3.33;0.98;;;21.60;45.00;;;;;;4861386;29;46018;-61
2022/09/23 14:35:23;;;;;;;1.50;1.02;;;21.60;45.00;;;;;;4850505;29;45504;-61
2022/09/23 14:40:47;;;;;;;1.45;1.02;;;21.60;45.00;;;;;;4832981;29;45910;-62
2022/09/23 14:43:16;;;;;;;2.28;1.05;;;21.60;45.00;;;;;;4862793;29;45997;-61
2022/09/23 14:45:46;;;;;;;1.65;1.15;;;21.60;45.10;;;;;;4845203;29;45455;-60
2022/09/23 14:48:15;;;;;;;4.97;1.27;;;21.60;45.10;;;;;;4860986;29;46202;-61
2022/09/23 14:50:53;;;;;;;1.48;1.15;;;21.60;45.10;;;;;;4848292;29;45354;-61
2022/09/23 14:53:21;;;;;;;1.23;0.98;;;21.60;45.00;;;;;;4855186;29;46886;-61
2022/09/23 14:55:47;;;;;;;1.95;1.08;;;21.60;45.10;;;;;;4861808;29;45273;-60
2022/09/23 14:58:16;;;;;;;2.08;0.93;;;21.60;45.00;;;;;;4851139;29;45754;-61
2022/09/23 15:00:59;;;;;;;1.98;1.00;;;21.50;45.00;;;;;;4845315;29;45298;-62
2022/09/23 15:03:27;;;;;;;1.27;0.90;;;21.50;45.00;;;;;;4852301;29;46206;-61
2022/09/23 15:05:56;;;;;;;1.77;1.10;;;21.50;45.00;;;;;;4853656;29;46229;-60
2022/09/23 15:08:24;;;;;;;1.45;0.95;;;21.50;45.00;;;;;;4835005;29;45419;-62
2022/09/23 15:10:50;;;;;;;1.45;0.90;;;21.50;45.00;;;;;;4870366;29;45551;-60
2022/09/23 15:13:45;;;;;;;0.95;0.80;;;21.50;45.00;;;;;;4860568;29;46078;-61
2022/09/23 15:16:13;;;;;;;2.13;1.40;;;21.50;45.00;;;;;;4862393;29;44729;-60
2022/09/23 15:18:40;;;;;;;1.95;1.23;;;21.50;45.10;;;;;;4853720;29;47427;-60
2022/09/23 15:21:16;;;;;;;1.48;0.80;;;21.50;45.10;;;;;;4855854;29;45356;-60
2022/09/23 15:23:50;;;;;;;1.02;0.82;;;21.50;45.10;;;;;;4854335;29;45752;-60
2022/09/23 15:26:17;;;;;;;1.90;0.90;;;21.50;45.10;;;;;;4863277;29;45658;-60
2022/09/23 15:28:43;;;;;;;1.17;1.00;;;21.50;45.10;;;;;;4868109;29;45768;-61
2022/09/23 15:31:15;;;;;;;1.63;1.00;;;21.50;45.10;;;;;;4865661;28;44946;-61
2022/09/23 15:33:47;;;;;;;2.30;1.15;;;21.50;45.10;;;;;;4864617;29;45998;-60
2022/09/23 15:36:27;;;;;;;1.60;0.98;;;21.50;45.10;;;;;;4866225;29;45323;-59
2022/09/23 15:39:00;;;;;;;0.95;0.82;;;21.50;45.20;;;;;;4856237;29;45256;-60
2022/09/23 15:41:26;;;;;;;;;;;21.50;45.20;;;;;;4842104;29;45387;-60
2022/09/23 15:43:51;;;;;;;1.00;0.88;;;21.50;45.20;;;;;;4866272;29;46082;-60
2022/09/23 15:46:22;;;;;;;1.45;1.10;;;21.40;45.20;;;;;;4866272;29;46209;-60
2022/09/23 15:49:11;;;;;;;1.35;0.90;;;21.40;45.10;;;;;;4849229;29;45566;-62
2022/09/23 15:51:37;;;;;;;2.00;1.00;;;21.40;45.20;;;;;;4866624;29;45768;-61
2022/09/23 15:54:04;;;;;;;2.55;1.20;;;21.40;45.20;;;;;;4851440;29;45880;-62
2022/09/23 15:56:30;;;;;;;1.10;0.90;;;21.40;45.20;;;;;;4866722;29;45199;-61
2022/09/23 15:58:55;;;;;;;1.13;0.88;;;21.40;45.20;;;;;;4866645;29;45251;-62
2022/09/23 16:01:31;;;;;;;1.55;0.90;;;21.40;45.20;;;;;;4864434;29;44786;-61
2022/09/23 16:04:00;;;;;;;1.27;0.98;;;21.40;45.20;;;;;;4854073;29;46069;-61
2022/09/23 16:06:26;;;;;;;3.45;1.10;;;21.40;45.20;;;;;;4866015;29;45707;-61
2022/09/23 16:08:52;;;;;;;0.80;0.80;;;21.40;45.20;;;;;;4867165;29;45295;-61
2022/09/23 16:11:19;;;;;;;1.17;1.05;;;21.40;45.20;;;;;;4865606;29;45832;-62
2022/09/23 16:13:45;;;;;;;1.08;0.65;;;21.40;45.20;;;;;;4861361;29;46082;-60
2022/09/23 16:16:11;;;;;;;1.30;1.00;;;21.40;45.20;;;;;;4864538;29;45279;-61
2022/09/23 16:18:38;;;;;;;0.80;0.80;;;21.40;45.30;;;;;;4863126;29;45622;-61
2022/09/23 16:21:05;;;;;;;1.45;1.10;;;21.30;45.20;;;;;;4866980;29;45885;-60
2022/09/23 16:23:38;;;;;;;1.77;1.00;;;21.30;45.20;;;;;;4857289;29;46818;-61
2022/09/23 16:26:09;;;;;;;;;;;21.30;45.20;;;;;;4866495;29;45475;-61
2022/09/23 16:28:35;;;;;;;0.75;0.65;;;21.30;45.30;;;;;;4878535;28;45338;-62
2022/09/23 16:31:00;;;;;;;1.20;0.73;;;21.30;45.30;;;;;;4864761;29;45402;-61
2022/09/23 16:33:26;;;;;;;1.92;1.10;;;21.30;45.30;;;;;;4866529;29;45972;-61
2022/09/23 16:35:52;;;;;;;1.65;0.93;;;21.30;45.30;;;;;;4866145;29;44872;-61
2022/09/23 16:38:17;;;;;;;2.38;1.30;;;21.30;45.20;;;;;;4866306;29;45616;-59
2022/09/23 16:40:43;;;;;;;0.85;0.82;;;21.30;45.20;;;;;;4865937;29;45243;-60
2022/09/23 16:43:08;;;;;;;3.33;1.00;;;21.30;45.30;;;;;;4864944;29;45988;-61
2022/09/23 16:45:34;;;;;;;1.70;1.10;;;21.30;45.30;;;;;;4865301;29;45653;-60
2022/09/23 16:48:00;;;;;;;0.80;0.75;;;21.30;45.30;;;;;;4865677;29;45297;-60
2022/09/23 16:50:25;;;;;;;1.27;1.00;;;21.30;45.30;;;;;;4854886;29;45351;-60
2022/09/23 16:52:54;;;;;;;1.20;0.90;;;21.30;45.90;;;;;;4866352;29;46115;-60
2022/09/23 16:55:20;;;;;;;1.83;1.00;;;21.30;45.20;;;;;;4865905;29;45348;-60
2022/09/23 16:57:46;;;;;;;1.17;1.00;;;21.30;45.30;;;;;;4864751;29;45267;-60
2022/09/23 17:05:43;;;;;;;1.00;0.75;;;21.20;45.40;;;;;;4866016;29;45440;-62
2022/09/23 17:08:11;;;;;;;1.35;0.95;;;21.20;45.30;;;;;;4866016;29;46227;-60
2022/09/23 17:10:40;;;;;;;1.30;1.02;;;21.20;45.30;;;;;;4864889;29;45211;-61
2022/09/23 17:13:06;;;;;;;1.42;0.90;;;21.20;45.40;;;;;;4864018;29;45905;-61
2022/09/23 17:15:38;;;;;;;1.48;1.10;;;21.20;45.30;;;;;;4855877;29;46523;-60